Terminal Aerodrome Forecast
Issued by NWS Tampa Bay Area, FL

Home | Current Version | Previous Version | Text Only | Print | Product List | Glossary On
Versions: 1 2 3 4 5 6 7 8 9 10 11 12 13 14 15 16
956
FTUS42 KTBW 271120
TAFSRQ
TAF
KSRQ 271120Z 2712/2812 VRB03KT P6SM SCT080
     FM271500 23005KT P6SM VCTS SCT035CB
     FM271800 24008KT P6SM SCT050 BKN110
     FM280000 26007KT P6SM SCT250
     FM280700 VRB03KT P6SM SCT250=

USA.gov is the U.S. government's official web portal to all federal, state and local government web resources and services.